createdAt,value
2023-05-05T00:01:39.377Z,98536.56
2023-05-05T00:04:08.771Z,98533.94
2023-05-05T00:06:36.887Z,98540.41
2023-05-05T00:09:04.881Z,98538.78
2023-05-05T00:11:32.936Z,98541.72
2023-05-05T00:14:03.263Z,98529.28
2023-05-05T00:16:31.323Z,98525.84
2023-05-05T00:19:02.417Z,98528.81
2023-05-05T00:21:31.830Z,98528.06
2023-05-05T00:23:59.897Z,98509.38
2023-05-05T00:26:27.867Z,98531.91
2023-05-05T00:28:56.564Z,98535.13
2023-05-05T00:31:24.699Z,98532.31
2023-05-05T00:33:52.772Z,98532.22
2023-05-05T00:36:22.844Z,98534.00
2023-05-05T00:38:52.305Z,98536.03
2023-05-05T00:41:20.343Z,98526.75
2023-05-05T00:43:48.674Z,98518.41
2023-05-05T00:46:23.388Z,98530.69
2023-05-05T00:48:51.636Z,98534.88
2023-05-05T00:51:22.769Z,98529.94
2023-05-05T00:53:52.276Z,98538.44
2023-05-05T00:56:21.937Z,98540.00
2023-05-05T00:58:50.372Z,98532.75
2023-05-05T01:01:18.908Z,98536.53
2023-05-05T01:03:47.082Z,98534.81
2023-05-05T01:06:23.925Z,98529.13
2023-05-05T01:09:01.665Z,98521.69
2023-05-05T01:11:33.487Z,98525.97
2023-05-05T01:14:06.982Z,98520.66
2023-05-05T01:16:35.524Z,98523.88
2023-05-05T01:19:10.953Z,98521.41
2023-05-05T01:21:41.233Z,98527.91
2023-05-05T01:24:23.862Z,98530.91
2023-05-05T01:26:56.219Z,98514.75
2023-05-05T01:29:42.354Z,98523.94
2023-05-05T01:32:12.821Z,98521.69
2023-05-05T01:34:43.156Z,98523.41
2023-05-05T01:37:14.090Z,98512.66
2023-05-05T01:39:43.741Z,98508.56
2023-05-05T01:42:13.916Z,98509.66
2023-05-05T01:44:43.298Z,98513.78
2023-05-05T01:47:14.215Z,98514.09
2023-05-05T01:49:44.061Z,98513.63
2023-05-05T01:52:12.849Z,98516.75
2023-05-05T01:54:42.104Z,98532.56
2023-05-05T01:57:11.233Z,98534.50
2023-05-05T01:59:39.963Z,98528.56
2023-05-05T02:02:09.493Z,98530.56
2023-05-05T02:04:42.080Z,98535.00
2023-05-05T02:07:11.804Z,98526.03
2023-05-05T02:09:40.203Z,98530.34
2023-05-05T02:12:09.178Z,98538.25
2023-05-05T02:14:37.943Z,98534.53
2023-05-05T02:17:06.127Z,98535.69
2023-05-05T02:19:42.887Z,98539.28
2023-05-05T02:22:15.361Z,98534.34
2023-05-05T02:24:43.705Z,98542.00
2023-05-05T02:27:12.652Z,98542.78
2023-05-05T02:29:43.566Z,98543.97
2023-05-05T02:32:15.426Z,98555.28
2023-05-05T02:34:43.865Z,98529.09
2023-05-05T02:37:21.012Z,98559.06
2023-05-05T02:39:58.552Z,98561.09
2023-05-05T02:42:30.168Z,98566.63
2023-05-05T02:44:59.735Z,98566.66
2023-05-05T02:47:36.101Z,98578.56
2023-05-05T02:50:05.249Z,98572.88
2023-05-05T02:52:36.163Z,98573.84
2023-05-05T02:55:05.224Z,98581.22
2023-05-05T02:57:39.182Z,98576.28
2023-05-05T03:00:13.706Z,98574.63
2023-05-05T03:02:46.009Z,98576.63
2023-05-05T03:05:20.665Z,98572.84
2023-05-05T03:07:55.848Z,98566.63
2023-05-05T03:10:28.949Z,98568.75
2023-05-05T03:13:00.776Z,98567.53
2023-05-05T03:15:40.890Z,98557.47
2023-05-05T03:18:11.552Z,98557.34
2023-05-05T03:20:44.266Z,98554.63
2023-05-05T03:23:18.349Z,98553.50
2023-05-05T03:25:48.225Z,98556.75
2023-05-05T03:28:26.351Z,98559.41
2023-05-05T03:30:55.857Z,98553.97
2023-05-05T03:33:24.024Z,98556.00
2023-05-05T03:35:52.352Z,98553.44
2023-05-05T03:38:21.724Z,98551.66
2023-05-05T03:40:49.781Z,98559.06
2023-05-05T03:43:21.561Z,98561.72
2023-05-05T03:45:50.526Z,98560.63
2023-05-05T03:48:18.762Z,98561.50
2023-05-05T03:50:47.461Z,98565.97
2023-05-05T03:53:17.035Z,98563.97
2023-05-05T03:55:46.977Z,98558.41
2023-05-05T03:58:15.099Z,98557.50
2023-05-05T04:00:43.684Z,98558.44
2023-05-05T04:03:12.466Z,98550.03
2023-05-05T04:05:40.717Z,98551.53
2023-05-05T04:08:08.892Z,98558.03
2023-05-05T04:10:39.328Z,98549.69
2023-05-05T04:13:09.387Z,98549.06
2023-05-05T04:15:38.591Z,98551.19
2023-05-05T04:18:07.110Z,98558.34
2023-05-05T04:20:35.910Z,98559.69
2023-05-05T04:23:06.258Z,98565.00
2023-05-05T04:25:34.348Z,98564.13
2023-05-05T04:28:02.906Z,98561.97
2023-05-05T04:30:33.550Z,98559.09
2023-05-05T04:33:01.835Z,98570.31
2023-05-05T04:35:30.781Z,98574.13
2023-05-05T04:37:59.360Z,98581.94
2023-05-05T04:40:27.542Z,98580.56
2023-05-05T04:42:57.041Z,98580.19
2023-05-05T04:45:25.158Z,98579.47
2023-05-05T04:47:54.513Z,98581.28
2023-05-05T04:50:22.813Z,98584.97
2023-05-05T04:52:52.664Z,98588.16
2023-05-05T04:55:21.428Z,98588.91
2023-05-05T04:57:49.452Z,98594.63
2023-05-05T05:00:17.851Z,98591.03
2023-05-05T05:02:46.053Z,98588.56
2023-05-05T05:05:15.547Z,98593.13
2023-05-05T05:07:43.600Z,98596.41
2023-05-05T05:10:11.792Z,98584.88
2023-05-05T05:12:39.881Z,98594.63
2023-05-05T05:15:08.628Z,98591.47
2023-05-05T05:17:36.657Z,98595.28
2023-05-05T05:20:08.195Z,98596.28
2023-05-05T05:22:39.219Z,98600.00
2023-05-05T05:25:11.701Z,98598.88
2023-05-05T05:27:41.645Z,98594.19
2023-05-05T05:30:13.532Z,98591.06
2023-05-05T05:32:41.957Z,98599.13
2023-05-05T05:35:10.855Z,98595.53
2023-05-05T05:37:40.398Z,98596.84
2023-05-05T05:40:09.751Z,98615.56
2023-05-05T05:42:40.016Z,98611.78
2023-05-05T05:45:10.014Z,98614.47
2023-05-05T05:47:40.932Z,98621.84
2023-05-05T05:50:09.743Z,98620.50
2023-05-05T05:52:42.414Z,98624.59
2023-05-05T05:55:11.386Z,98618.00
2023-05-05T05:57:40.713Z,98625.16
2023-05-05T06:00:11.368Z,98629.47
2023-05-05T06:02:45.901Z,98624.84
2023-05-05T06:05:17.973Z,98633.81
2023-05-05T06:07:48.998Z,98621.22
2023-05-05T06:10:27.183Z,98617.31
2023-05-05T06:13:01.298Z,98631.72
2023-05-05T06:15:29.995Z,98620.72
2023-05-05T06:17:58.398Z,98620.09
2023-05-05T06:20:27.557Z,98630.84
2023-05-05T06:22:57.385Z,98626.09
2023-05-05T06:25:26.871Z,98636.06
2023-05-05T06:27:54.950Z,98633.28
2023-05-05T06:30:22.907Z,98636.38
2023-05-05T06:32:50.982Z,98628.56
2023-05-05T06:35:22.253Z,98621.41
2023-05-05T06:37:50.341Z,98627.41
2023-05-05T06:40:19.725Z,98633.88
2023-05-05T06:42:47.776Z,98626.47
2023-05-05T06:45:22.166Z,98631.53
2023-05-05T06:47:50.231Z,98632.22
2023-05-05T06:50:18.299Z,98615.81
2023-05-05T06:52:46.356Z,98632.84
2023-05-05T06:55:14.377Z,98646.00
2023-05-05T06:57:43.757Z,98635.19
2023-05-05T07:00:13.884Z,98639.69
2023-05-05T07:02:42.102Z,98641.47
2023-05-05T07:05:10.419Z,98649.38
2023-05-05T07:07:38.877Z,98639.34
2023-05-05T07:10:10.386Z,98638.41
2023-05-05T07:12:38.696Z,98645.25
2023-05-05T07:15:23.317Z,98643.63
2023-05-05T07:17:55.281Z,98648.50
2023-05-05T07:20:23.377Z,98649.59
2023-05-05T07:22:51.460Z,98654.56
2023-05-05T07:25:19.497Z,98654.34
2023-05-05T07:27:47.527Z,98653.88
2023-05-05T07:30:18.812Z,98654.22
2023-05-05T07:32:47.601Z,98657.38
2023-05-05T07:35:15.888Z,98649.91
2023-05-05T07:37:44.927Z,98652.78
2023-05-05T07:40:13.285Z,98660.22
2023-05-05T07:42:41.381Z,98660.91
2023-05-05T07:45:09.733Z,98660.63
2023-05-05T07:47:40.545Z,98664.41
2023-05-05T07:50:09.409Z,98657.72
2023-05-05T07:52:48.370Z,98658.31
2023-05-05T07:55:19.794Z,98658.78
2023-05-05T07:57:48.248Z,98656.78
2023-05-05T08:00:19.263Z,98665.03
2023-05-05T08:02:51.092Z,98663.31
2023-05-05T08:05:19.286Z,98666.28
2023-05-05T08:07:49.462Z,98671.78
2023-05-05T08:10:17.624Z,98672.47
2023-05-05T08:12:45.709Z,98665.50
2023-05-05T08:15:13.955Z,98670.91
2023-05-05T08:17:46.694Z,98668.00
2023-05-05T08:20:18.628Z,98667.28
2023-05-05T08:22:46.839Z,98672.56
2023-05-05T08:25:15.287Z,98666.13
2023-05-05T08:27:44.011Z,98664.53
2023-05-05T08:30:12.821Z,98672.75
2023-05-05T08:32:43.377Z,98665.75
2023-05-05T08:35:13.643Z,98677.47
2023-05-05T08:37:43.242Z,98674.88
2023-05-05T08:40:12.670Z,98667.38
2023-05-05T08:42:44.546Z,98662.81
2023-05-05T08:45:12.732Z,98675.97
2023-05-05T08:47:42.027Z,98677.09
2023-05-05T08:50:11.519Z,98667.06
2023-05-05T08:52:41.196Z,98672.66
2023-05-05T08:55:14.325Z,98671.34
2023-05-05T08:57:45.041Z,98668.78
2023-05-05T09:00:13.938Z,98669.94
2023-05-05T09:02:43.903Z,98664.19
2023-05-05T09:05:12.100Z,98661.59
2023-05-05T09:07:41.248Z,98656.03
2023-05-05T09:10:09.878Z,98663.59
2023-05-05T09:12:41.228Z,98655.81
2023-05-05T09:15:10.180Z,98655.19
2023-05-05T09:17:38.818Z,98651.78
2023-05-05T09:20:08.177Z,98654.09
2023-05-05T09:22:37.590Z,98650.09
2023-05-05T09:25:09.618Z,98645.25
2023-05-05T09:27:42.259Z,98655.53
2023-05-05T09:30:11.233Z,98650.19
2023-05-05T09:32:46.764Z,98655.69
2023-05-05T09:35:14.910Z,98655.38
2023-05-05T09:37:43.254Z,98655.13
2023-05-05T09:40:15.261Z,98656.66
2023-05-05T09:42:47.252Z,98656.81
2023-05-05T09:45:28.553Z,98650.63
2023-05-05T09:48:00.602Z,98650.50
2023-05-05T09:50:32.642Z,98651.06
2023-05-05T09:53:02.121Z,98651.47
2023-05-05T09:55:30.959Z,98645.31
2023-05-05T09:58:16.404Z,98652.59
2023-05-05T10:00:46.410Z,98652.56
2023-05-05T10:03:14.665Z,98647.41
2023-05-05T10:05:50.352Z,98647.84
2023-05-05T10:08:19.201Z,98649.84
2023-05-05T10:10:48.294Z,98650.63
2023-05-05T10:13:16.656Z,98657.63
2023-05-05T10:15:46.265Z,98648.28
2023-05-05T10:18:15.589Z,98652.22
2023-05-05T10:20:44.206Z,98645.09
2023-05-05T10:23:15.234Z,98646.47
2023-05-05T10:25:47.993Z,98635.91
2023-05-05T10:28:22.113Z,98639.34
2023-05-05T10:30:53.384Z,98643.53
2023-05-05T10:35:56.732Z,98638.94
2023-05-05T10:38:26.864Z,98633.44
2023-05-05T10:40:58.681Z,98632.06
2023-05-05T10:43:27.800Z,98628.88
2023-05-05T10:45:57.507Z,98625.22
2023-05-05T10:48:29.207Z,98632.41
2023-05-05T10:51:00.338Z,98631.41
2023-05-05T10:53:29.997Z,98621.63
2023-05-05T10:56:04.414Z,98614.63
2023-05-05T10:58:38.533Z,98612.25
2023-05-05T11:01:30.806Z,98612.53
2023-05-05T11:04:17.508Z,98603.38
2023-05-05T11:07:06.871Z,98599.00
2023-05-05T11:09:38.563Z,98602.16
2023-05-05T11:12:07.244Z,98592.81
2023-05-05T11:14:35.481Z,98599.81
2023-05-05T11:17:04.831Z,98598.84
2023-05-05T11:19:48.878Z,98596.88
2023-05-05T11:22:17.608Z,98598.50
2023-05-05T11:24:48.113Z,98600.75
2023-05-05T11:27:16.114Z,98592.56
2023-05-05T11:30:02.955Z,98583.88
2023-05-05T11:32:33.613Z,98584.56
2023-05-05T11:35:06.141Z,98582.25
2023-05-05T11:37:34.696Z,98576.69
2023-05-05T11:40:13.591Z,98580.06
2023-05-05T11:42:41.741Z,98575.72
2023-05-05T11:45:23.147Z,98575.03
2023-05-05T11:47:52.612Z,98577.06
2023-05-05T11:50:22.876Z,98564.56
2023-05-05T11:52:50.961Z,98571.22
2023-05-05T11:55:27.548Z,98569.00
2023-05-05T11:57:58.320Z,98575.16
2023-05-05T12:00:35.451Z,98571.53
2023-05-05T12:03:05.420Z,98567.16
2023-05-05T12:05:36.312Z,98564.69
2023-05-05T12:08:05.062Z,98557.75
2023-05-05T12:10:33.209Z,98559.00
2023-05-05T12:13:01.324Z,98556.63
2023-05-05T12:15:30.219Z,98561.22
2023-05-05T12:18:00.066Z,98564.16
2023-05-05T12:20:36.453Z,98550.88
2023-05-05T12:23:04.845Z,98546.22
2023-05-05T12:25:36.957Z,98540.53
2023-05-05T12:28:06.140Z,98535.16
2023-05-05T12:30:34.540Z,98535.50
2023-05-05T12:33:03.567Z,98539.84
2023-05-05T12:35:32.036Z,98535.75
2023-05-05T12:38:01.386Z,98533.44
2023-05-05T12:40:45.635Z,98518.03
2023-05-05T12:43:32.601Z,98519.78
2023-05-05T12:46:06.844Z,98517.88
2023-05-05T12:48:38.962Z,98514.47
2023-05-05T12:51:14.392Z,98513.81
2023-05-05T12:53:43.855Z,98500.25
2023-05-05T12:56:30.850Z,98508.03
2023-05-05T12:58:59.024Z,98504.13
2023-05-05T13:01:27.077Z,98503.22
2023-05-05T13:04:08.428Z,98497.72
2023-05-05T13:06:37.603Z,98494.81
2023-05-05T13:09:07.397Z,98495.63
2023-05-05T13:11:35.892Z,98486.91
2023-05-05T13:14:04.357Z,98489.44
2023-05-05T13:16:32.389Z,98491.94
2023-05-05T13:19:00.398Z,98490.66
2023-05-05T13:21:28.675Z,98487.03
2023-05-05T13:24:08.203Z,98494.63
2023-05-05T13:26:46.131Z,98482.34
2023-05-05T13:29:14.230Z,98473.47
2023-05-05T13:31:42.408Z,98472.41
2023-05-05T13:34:12.971Z,98487.31
2023-05-05T13:36:41.054Z,98479.06
2023-05-05T13:39:12.434Z,98465.66
2023-05-05T13:41:40.785Z,98456.16
2023-05-05T13:44:13.582Z,98448.94
2023-05-05T13:46:41.872Z,98416.72
2023-05-05T13:49:10.054Z,98432.53
2023-05-05T13:51:39.046Z,98433.28
2023-05-05T13:54:07.234Z,98428.44
2023-05-05T13:56:35.607Z,98427.13
2023-05-05T13:59:03.690Z,98416.56
2023-05-05T14:01:33.132Z,98411.38
2023-05-05T14:04:04.494Z,98411.72
2023-05-05T14:06:33.853Z,98413.75
2023-05-05T14:09:05.580Z,98408.88
2023-05-05T14:11:36.077Z,98411.72
2023-05-05T14:14:04.112Z,98412.09
2023-05-05T14:16:33.648Z,98408.22
2023-05-05T14:19:01.738Z,98405.44
2023-05-05T14:21:29.757Z,98408.28
2023-05-05T14:23:57.845Z,98407.72
2023-05-05T14:26:26.287Z,98406.44
2023-05-05T14:28:54.524Z,98416.97
2023-05-05T14:31:22.617Z,98404.72
2023-05-05T14:33:53.356Z,98405.47
2023-05-05T14:36:24.185Z,98418.88
2023-05-05T14:38:52.365Z,98416.41
2023-05-05T14:41:20.532Z,98416.97
2023-05-05T14:43:48.601Z,98423.34
2023-05-05T14:46:18.610Z,98422.16
2023-05-05T14:48:47.356Z,98415.22
2023-05-05T14:51:16.845Z,98391.41
2023-05-05T14:53:44.924Z,98392.34
2023-05-05T14:56:13.073Z,98391.94
2023-05-05T14:58:41.242Z,98393.75
2023-05-05T15:01:09.457Z,98400.00
2023-05-05T15:03:37.684Z,98393.16
2023-05-05T15:06:05.901Z,98389.16
2023-05-05T15:08:35.281Z,98389.06
2023-05-05T15:11:04.173Z,98388.94
2023-05-05T15:13:32.258Z,98394.91
2023-05-05T15:16:00.822Z,98388.06
2023-05-05T15:18:28.987Z,98382.16
2023-05-05T15:20:57.025Z,98381.75
2023-05-05T15:23:27.406Z,98380.63
2023-05-05T15:25:56.755Z,98379.53
2023-05-05T15:28:24.790Z,98373.25
2023-05-05T15:30:52.839Z,98361.44
2023-05-05T15:33:20.963Z,98351.88
2023-05-05T15:35:48.989Z,98346.03
2023-05-05T15:38:17.063Z,98348.00
2023-05-05T15:40:46.708Z,98352.72
2023-05-05T15:43:17.729Z,98363.69
2023-05-05T15:45:45.920Z,98361.72
2023-05-05T15:48:14.012Z,98369.28
2023-05-05T15:50:42.045Z,98372.06
2023-05-05T15:53:12.436Z,98382.16
2023-05-05T15:55:40.678Z,98393.72
2023-05-05T15:58:08.699Z,98405.09
2023-05-05T16:00:38.179Z,98412.53
2023-05-05T16:03:06.496Z,98417.97
2023-05-05T16:05:36.707Z,98425.44
2023-05-05T16:08:09.658Z,98436.28
2023-05-05T16:10:37.702Z,98458.97
2023-05-05T16:13:05.929Z,98474.25
2023-05-05T16:15:35.241Z,98509.94
2023-05-05T16:18:07.235Z,98542.00
2023-05-05T16:20:35.265Z,98605.41
2023-05-05T16:23:03.315Z,98667.69
2023-05-05T16:25:31.567Z,98681.25
2023-05-05T16:28:01.532Z,63131.69
2023-05-05T16:30:30.196Z,63131.69
2023-05-05T16:33:00.815Z,63131.69
2023-05-05T16:35:30.637Z,63131.69
2023-05-05T16:37:59.050Z,63131.69
2023-05-05T16:40:29.682Z,63131.69
2023-05-05T16:42:59.059Z,63131.69
2023-05-05T16:45:27.417Z,63131.69
2023-05-05T16:47:56.180Z,63131.69
2023-05-05T16:50:24.686Z,63131.69
2023-05-05T16:52:54.540Z,63131.69
2023-05-05T16:55:23.266Z,63131.69
2023-05-05T16:57:51.553Z,63131.69
2023-05-05T17:00:20.049Z,63131.69
2023-05-05T17:02:48.452Z,63131.69
2023-05-05T17:05:17.423Z,63131.69
2023-05-05T17:07:45.920Z,63131.69
2023-05-05T17:10:15.658Z,63131.69
2023-05-05T17:12:46.008Z,63131.69
2023-05-05T17:15:14.423Z,63131.69
2023-05-05T17:17:43.328Z,63131.69
2023-05-05T17:20:12.668Z,63131.69
2023-05-05T17:22:41.064Z,63131.69
2023-05-05T17:25:10.692Z,63131.69
2023-05-05T17:27:40.612Z,63131.69
2023-05-05T17:30:10.135Z,63131.69
2023-05-05T17:32:38.663Z,63131.69
2023-05-05T17:35:11.173Z,63131.69
2023-05-05T17:37:39.709Z,63131.69
2023-05-05T17:40:09.249Z,63131.69
2023-05-05T17:42:38.189Z,63131.69
2023-05-05T17:45:09.360Z,63131.69
2023-05-05T17:47:37.970Z,63131.69
2023-05-05T17:50:10.933Z,63131.69
2023-05-05T17:52:40.356Z,63131.69
2023-05-05T17:55:09.774Z,63131.69
2023-05-05T17:57:38.388Z,63131.69
2023-05-05T18:00:10.041Z,63131.69
2023-05-05T18:02:41.532Z,63131.69
2023-05-05T18:05:10.830Z,63131.69
2023-05-05T18:07:39.579Z,63131.69
2023-05-05T18:10:10.575Z,63131.69
2023-05-05T18:12:38.950Z,63131.69
2023-05-05T18:15:09.963Z,63131.69
2023-05-05T18:17:38.727Z,63131.69
2023-05-05T18:20:08.318Z,63131.69
2023-05-05T18:22:37.123Z,63131.69
2023-05-05T18:25:07.986Z,63131.69
2023-05-05T18:27:37.354Z,63131.69
2023-05-05T18:30:08.702Z,63131.69
2023-05-05T18:32:37.480Z,63131.69
2023-05-05T18:35:06.852Z,63131.69
2023-05-05T18:37:35.367Z,63131.69
2023-05-05T18:40:03.638Z,63131.69
2023-05-05T18:42:31.991Z,63131.69
2023-05-05T18:45:00.315Z,63131.69
2023-05-05T18:47:29.934Z,63131.69
2023-05-05T18:49:58.271Z,63131.69
2023-05-05T18:52:27.383Z,63131.69
2023-05-05T18:54:55.912Z,63131.69
2023-05-05T18:57:24.245Z,63131.69
2023-05-05T18:59:52.641Z,63131.69
2023-05-05T19:02:21.023Z,63131.69
2023-05-05T19:04:50.755Z,63131.69
2023-05-05T19:07:33.851Z,63131.69
2023-05-05T19:10:04.679Z,63131.69
2023-05-05T19:12:33.075Z,63131.69
2023-05-05T19:15:01.447Z,63131.69
2023-05-05T19:17:29.748Z,63131.69
2023-05-05T19:19:59.523Z,63131.69
2023-05-05T19:22:27.910Z,63131.69
2023-05-05T19:24:56.200Z,63131.69
2023-05-05T19:27:24.588Z,63131.69
2023-05-05T19:29:53.342Z,63131.69
2023-05-05T19:32:22.724Z,63131.69
2023-05-05T19:34:54.123Z,63131.69
2023-05-05T19:37:23.826Z,63131.69
2023-05-05T19:39:55.270Z,63131.69
2023-05-05T19:42:23.584Z,63131.69
2023-05-05T19:44:51.946Z,63131.69
2023-05-05T19:47:20.708Z,63131.69
2023-05-05T19:49:48.953Z,63131.69
2023-05-05T19:52:17.264Z,63131.69
2023-05-05T19:54:46.917Z,63131.69
2023-05-05T19:57:15.224Z,63131.69
2023-05-05T19:59:43.573Z,63131.69
2023-05-05T20:02:12.279Z,63131.69
2023-05-05T20:04:40.579Z,63131.69
2023-05-05T20:07:08.887Z,63131.69
2023-05-05T20:09:37.797Z,63131.69
2023-05-05T20:12:08.394Z,63131.69
2023-05-05T20:14:36.787Z,63131.69
2023-05-05T20:17:05.059Z,63131.69
2023-05-05T20:19:33.440Z,63131.69
2023-05-05T20:22:01.744Z,63131.69
2023-05-05T20:24:30.289Z,63131.69
2023-05-05T20:26:58.628Z,63131.69
2023-05-05T20:29:28.283Z,63131.69
2023-05-05T20:31:59.102Z,63131.69
2023-05-05T20:34:27.719Z,63131.69
2023-05-05T20:36:56.574Z,63131.69
2023-05-05T20:39:25.070Z,63131.69
2023-05-05T20:41:53.362Z,63131.69
2023-05-05T20:44:21.720Z,63131.69
2023-05-05T20:46:51.608Z,63131.69
2023-05-05T20:49:20.071Z,63131.69
2023-05-05T20:51:48.376Z,63131.69
2023-05-05T20:54:16.671Z,63131.69
2023-05-05T20:56:44.994Z,63131.69
2023-05-05T20:59:16.380Z,63131.69
2023-05-05T21:01:44.972Z,63131.69
2023-05-05T21:04:14.673Z,63131.69
2023-05-05T21:06:42.969Z,63131.69
2023-05-05T21:09:11.609Z,63131.69
2023-05-05T21:11:39.987Z,63131.69
2023-05-05T21:14:11.576Z,63131.69
2023-05-05T21:16:40.160Z,63131.69
2023-05-05T21:19:08.572Z,63131.69
2023-05-05T21:21:38.269Z,63131.69
2023-05-05T21:24:08.157Z,63131.69
2023-05-05T21:26:36.973Z,63131.69
2023-05-05T21:29:05.440Z,63131.69
2023-05-05T21:31:33.845Z,63131.69
2023-05-05T21:34:02.327Z,63131.69
2023-05-05T21:36:33.580Z,63131.69
2023-05-05T21:39:03.235Z,63131.69
2023-05-05T21:41:31.578Z,63131.69
2023-05-05T21:43:59.937Z,63131.69
2023-05-05T21:46:28.311Z,63131.69
2023-05-05T21:48:59.035Z,63131.69
2023-05-05T21:51:27.287Z,63131.69
2023-05-05T21:53:55.936Z,63131.69
2023-05-05T21:56:25.658Z,63131.69
2023-05-05T21:58:56.397Z,63131.69
2023-05-05T22:02:36.592Z,98653.81
2023-05-05T22:05:05.796Z,98643.03
2023-05-05T22:07:36.140Z,98641.53
2023-05-05T22:10:04.592Z,98641.25
2023-05-05T22:12:32.999Z,98637.28
2023-05-05T22:15:01.371Z,98633.84
2023-05-05T22:17:29.767Z,98631.06
2023-05-05T22:19:59.676Z,98653.31
2023-05-05T22:22:27.981Z,98653.44
2023-05-05T22:24:58.527Z,98647.25
2023-05-05T22:27:26.896Z,98654.75
2023-05-05T22:29:57.642Z,98646.78
2023-05-05T22:32:25.999Z,98645.06
2023-05-05T22:34:54.325Z,98650.16
2023-05-05T22:37:26.665Z,98646.09
2023-05-05T22:39:54.976Z,98641.84
2023-05-05T22:42:23.297Z,98643.94
2023-05-05T22:44:51.581Z,98639.94
2023-05-05T22:47:19.890Z,98641.34
2023-05-05T22:49:48.311Z,98641.66
2023-05-05T22:52:18.897Z,98644.38
2023-05-05T22:54:48.518Z,98651.66
2023-05-05T22:57:18.898Z,98635.13
2023-05-05T22:59:49.478Z,98651.06
2023-05-05T23:02:19.859Z,98653.69
2023-05-05T23:04:48.258Z,98646.56
2023-05-05T23:07:16.642Z,98659.13
2023-05-05T23:09:44.935Z,98655.00
2023-05-05T23:12:14.762Z,98658.72
2023-05-05T23:14:43.088Z,98654.72
2023-05-05T23:17:11.775Z,98670.31
2023-05-05T23:19:40.472Z,98664.97
2023-05-05T23:22:08.801Z,98647.63
2023-05-05T23:24:37.237Z,98665.56
2023-05-05T23:27:07.936Z,98663.50
2023-05-05T23:29:37.771Z,98668.25
2023-05-05T23:32:06.623Z,98670.44
2023-05-05T23:34:34.871Z,98675.34
2023-05-05T23:37:05.273Z,98680.66
2023-05-05T23:39:34.720Z,98680.66
2023-05-05T23:42:03.105Z,98681.31
2023-05-05T23:44:31.390Z,98680.16
2023-05-05T23:47:01.042Z,98695.69
2023-05-05T23:49:29.357Z,98686.63
2023-05-05T23:51:58.437Z,98676.91
2023-05-05T23:54:26.731Z,98666.44
2023-05-05T23:56:55.384Z,98665.03
2023-05-05T23:59:23.673Z,98684.31
